Time;durP1;ratioP1;P1;durP2;ratioP2;P2;SDS_P1;SDS_P2;PMS_P1;PMS_P2;Temp;Humidity;BMP_temperature;BMP_pressure;BME280_temperature;BME280_humidity;BME280_pressure;Samples;Min_cycle;Max_cycle;Signal;HPM_P1;HPM_P2
2023/02/02 00:00:04;;;;;;;4.88;2.30;;;;;;;;;;5046423;28;20033;-49
2023/02/02 00:02:30;;;;;;;4.65;2.03;;;;;;;;;;5046453;28;20116;-47
2023/02/02 00:04:57;;;;;;;6.03;1.98;;;;;;;;;;5046187;28;20107;-46
2023/02/02 00:07:23;;;;;;;6.53;2.10;;;;;;;;;;5046768;28;20029;-46
2023/02/02 00:09:49;;;;;;;3.53;2.10;;;;;;;;;;5046595;28;20536;-48
2023/02/02 00:12:15;;;;;;;5.47;2.15;;;;;;;;;;5046929;28;20029;-48
2023/02/02 00:14:41;;;;;;;5.57;2.50;;;;;;;;;;5046595;28;20586;-46
2023/02/02 00:17:09;;;;;;;7.03;2.60;;;;;;;;;;5046014;28;20111;-46
2023/02/02 00:19:35;;;;;;;8.35;3.28;;;;;;;;;;5046302;28;20053;-46
2023/02/02 00:22:01;;;;;;;7.28;2.80;;;;;;;;;;5046240;28;20028;-48
2023/02/02 00:24:28;;;;;;;4.90;2.55;;;;;;;;;;5046265;28;20025;-47
2023/02/02 00:26:55;;;;;;;10.45;3.58;;;;;;;;;;5045978;28;20029;-49
2023/02/02 00:29:23;;;;;;;5.13;2.90;;;;;;;;;;5046202;28;20491;-46
2023/02/02 00:31:50;;;;;;;9.73;3.17;;;;;;;;;;5045859;28;20013;-45
2023/02/02 00:34:16;;;;;;;6.38;2.80;;;;;;;;;;5046823;28;20029;-47
2023/02/02 00:36:43;;;;;;;6.72;3.20;;;;;;;;;;5046782;28;20013;-47
2023/02/02 00:39:12;;;;;;;5.40;2.75;;;;;;;;;;5045980;28;20029;-46
2023/02/02 00:41:38;;;;;;;7.65;2.97;;;;;;;;;;5045734;28;20029;-46
2023/02/02 00:46:49;;;;;;;6.45;3.17;;;;;;;;;;5045914;28;20047;-46
2023/02/02 00:49:16;;;;;;;5.95;3.00;;;;;;;;;;5045273;28;20033;-45
2023/02/02 00:51:42;;;;;;;5.57;3.10;;;;;;;;;;5046520;28;20025;-47
2023/02/02 00:54:08;;;;;;;9.68;4.18;;;;;;;;;;5045639;28;20029;-49
2023/02/02 00:56:34;;;;;;;8.13;3.80;;;;;;;;;;5046151;28;20090;-46
2023/02/02 00:59:00;;;;;;;10.27;4.15;;;;;;;;;;5045374;28;20028;-45
2023/02/02 01:01:26;;;;;;;8.95;3.55;;;;;;;;;;5044345;28;20367;-45
2023/02/02 01:03:52;;;;;;;9.75;3.75;;;;;;;;;;5045142;28;20033;-47
2023/02/02 06:12:43;;;;;;;7.45;3.53;;;;;;;;;;5044191;28;20080;-47
2023/02/02 06:15:09;;;;;;;6.25;3.50;;;;;;;;;;5042243;28;20040;-45
2023/02/02 06:17:36;;;;;;;7.13;3.75;;;;;;;;;;5028886;28;20025;-46
2023/02/02 06:20:02;;;;;;;6.15;3.80;;;;;;;;;;5028655;28;20539;-47
2023/02/02 06:22:29;;;;;;;7.63;3.72;;;;;;;;;;5028725;28;20025;-45
2023/02/02 06:24:55;;;;;;;8.18;3.90;;;;;;;;;;5028813;28;20106;-45
2023/02/02 06:27:21;;;;;;;8.23;3.75;;;;;;;;;;5028530;28;20037;-46
2023/02/02 06:29:47;;;;;;;9.68;4.40;;;;;;;;;;5027325;28;20060;-46
2023/02/02 06:32:13;;;;;;;7.32;3.30;;;;;;;;;;5028545;28;20021;-47
2023/02/02 06:34:39;;;;;;;7.93;3.30;;;;;;;;;;5028615;28;20439;-48
2023/02/02 06:37:06;;;;;;;8.18;3.78;;;;;;;;;;5028332;28;20162;-46
2023/02/02 06:39:32;;;;;;;8.88;4.50;;;;;;;;;;5028455;28;20029;-46
2023/02/02 06:41:58;;;;;;;6.63;3.53;;;;;;;;;;5028400;28;20021;-45
2023/02/02 06:44:24;;;;;;;8.68;4.07;;;;;;;;;;5028112;28;20156;-46
2023/02/02 06:46:50;;;;;;;7.60;3.83;;;;;;;;;;5028401;28;20034;-46
2023/02/02 06:49:16;;;;;;;9.90;4.65;;;;;;;;;;5034930;28;20069;-47
2023/02/02 06:51:42;;;;;;;7.70;4.22;;;;;;;;;;5034628;28;20033;-46
2023/02/02 06:54:08;;;;;;;8.13;3.90;;;;;;;;;;5035011;28;20029;-49
2023/02/02 06:56:34;;;;;;;9.52;3.80;;;;;;;;;;5031344;28;20037;-45
2023/02/02 06:59:00;;;;;;;8.35;4.03;;;;;;;;;;5050245;28;20448;-46
2023/02/02 07:01:26;;;;;;;6.35;3.35;;;;;;;;;;5052908;28;20025;-50
2023/02/02 07:03:52;;;;;;;9.90;3.15;;;;;;;;;;5035003;28;20036;-46
2023/02/02 07:06:23;;;;;;;7.95;3.20;;;;;;;;;;5033021;28;20040;-47
2023/02/02 07:08:49;;;;;;;5.80;2.58;;;;;;;;;;5034628;28;20021;-46
2023/02/02 07:11:16;;;;;;;5.68;2.90;;;;;;;;;;5019966;28;20030;-47
2023/02/02 07:13:43;;;;;;;6.00;2.70;;;;;;;;;;5029921;28;20068;-45
2023/02/02 07:16:11;;;;;;;5.43;2.50;;;;;;;;;;5054857;28;20036;-48
2023/02/02 07:18:38;;;;;;;3.92;2.13;;;;;;;;;;5070033;28;20485;-46
2023/02/02 07:21:04;;;;;;;3.95;2.50;;;;;;;;;;5053187;28;20094;-47
2023/02/02 07:23:31;;;;;;;5.10;2.65;;;;;;;;;;5054570;28;20017;-47
2023/02/02 07:26:16;;;;;;;10.88;3.75;;;;;;;;;;5054869;28;20033;-46
2023/02/02 07:28:42;;;;;;;9.30;4.32;;;;;;;;;;5054125;28;20104;-46
2023/02/02 07:31:22;;;;;;;8.90;4.03;;;;;;;;;;5054361;28;20028;-50
2023/02/02 07:33:49;;;;;;;11.43;4.80;;;;;;;;;;5053202;28;20453;-47
2023/02/02 07:36:16;;;;;;;11.70;4.75;;;;;;;;;;5053374;28;20040;-46
2023/02/02 07:38:42;;;;;;;10.15;4.07;;;;;;;;;;5054605;28;20033;-47
2023/02/02 07:41:08;;;;;;;11.20;4.15;;;;;;;;;;5053799;28;20029;-46
2023/02/02 07:43:34;;;;;;;5.25;2.95;;;;;;;;;;5053999;28;20037;-47
2023/02/02 07:46:01;;;;;;;5.97;2.58;;;;;;;;;;5054303;28;20055;-46
2023/02/02 07:48:28;;;;;;;5.60;2.85;;;;;;;;;;5054687;28;20025;-47
2023/02/02 07:50:57;;;;;;;5.13;2.72;;;;;;;;;;5054381;28;20056;-48
2023/02/02 07:53:23;;;;;;;6.40;2.63;;;;;;;;;;5055200;28;20037;-49
2023/02/02 07:55:49;;;;;;;6.35;2.67;;;;;;;;;;5054959;28;20033;-45
2023/02/02 07:58:15;;;;;;;6.53;3.53;;;;;;;;;;5054341;28;20052;-47
2023/02/02 08:00:41;;;;;;;7.55;3.33;;;;;;;;;;5050496;28;20484;-47
2023/02/02 08:03:10;;;;;;;4.53;2.50;;;;;;;;;;5051012;28;20033;-46
2023/02/02 08:05:36;;;;;;;6.45;2.60;;;;;;;;;;5052029;28;20025;-48
2023/02/02 08:08:02;;;;;;;5.38;2.38;;;;;;;;;;5051894;28;20027;-49
2023/02/02 08:10:28;;;;;;;3.75;2.33;;;;;;;;;;5053653;28;20029;-46
2023/02/02 08:12:54;;;;;;;5.20;2.47;;;;;;;;;;5051278;28;20404;-46
2023/02/02 08:15:21;;;;;;;4.50;2.20;;;;;;;;;;5034193;28;20025;-46
2023/02/02 08:17:48;;;;;;;4.25;2.40;;;;;;;;;;5031654;28;20152;-46
2023/02/02 08:20:15;;;;;;;4.18;2.58;;;;;;;;;;5031812;28;20033;-46
2023/02/02 08:22:41;;;;;;;6.80;3.13;;;;;;;;;;5031558;28;20109;-47
2023/02/02 08:25:08;;;;;;;7.13;3.35;;;;;;;;;;5031490;28;20025;-46
2023/02/02 08:27:34;;;;;;;8.25;3.70;;;;;;;;;;5045341;28;20032;-49
2023/02/02 08:30:00;;;;;;;6.30;3.40;;;;;;;;;;5035065;28;20451;-46
2023/02/02 08:32:26;;;;;;;7.03;3.72;;;;;;;;;;5029515;28;20434;-45
2023/02/02 08:34:52;;;;;;;6.40;3.30;;;;;;;;;;5031015;28;20018;-46
2023/02/02 08:37:18;;;;;;;6.00;3.40;;;;;;;;;;5031206;28;20471;-48
2023/02/02 08:39:44;;;;;;;7.95;3.30;;;;;;;;;;5031257;28;20029;-49
2023/02/02 08:42:11;;;;;;;8.25;3.33;;;;;;;;;;5039737;28;20025;-46
2023/02/02 08:44:38;;;;;;;8.50;3.80;;;;;;;;;;5028624;28;20033;-49
2023/02/02 08:47:04;;;;;;;7.63;3.90;;;;;;;;;;5031059;28;20033;-46
2023/02/02 08:49:30;;;;;;;6.53;3.50;;;;;;;;;;5031272;28;20034;-47
2023/02/02 08:51:57;;;;;;;6.65;3.45;;;;;;;;;;5031117;28;20049;-46
2023/02/02 08:54:23;;;;;;;7.93;3.58;;;;;;;;;;5030036;28;20029;-48
2023/02/02 08:56:49;;;;;;;8.13;3.63;;;;;;;;;;5030868;28;20025;-45
2023/02/02 08:59:15;;;;;;;8.93;3.88;;;;;;;;;;5030497;28;20550;-48
2023/02/02 09:01:42;;;;;;;6.47;3.45;;;;;;;;;;5029330;28;20049;-47
2023/02/02 09:04:12;;;;;;;6.78;3.47;;;;;;;;;;5029833;28;20032;-46
2023/02/02 09:06:40;;;;;;;8.48;3.20;;;;;;;;;;5028610;28;20037;-48
2023/02/02 09:09:08;;;;;;;8.25;2.88;;;;;;;;;;5030687;28;20152;-46
2023/02/02 09:11:34;;;;;;;6.25;2.75;;;;;;;;;;5043580;28;20037;-49
2023/02/02 09:14:01;;;;;;;4.93;2.67;;;;;;;;;;5050288;28;20115;-48
2023/02/02 09:16:28;;;;;;;4.03;2.17;;;;;;;;;;5051163;28;20025;-46
2023/02/02 09:18:55;;;;;;;4.65;2.00;;;;;;;;;;5039395;28;20033;-47
2023/02/02 09:21:21;;;;;;;6.95;2.28;;;;;;;;;;5030480;28;20033;-49
2023/02/02 09:23:48;;;;;;;5.55;2.65;;;;;;;;;;5030442;28;20029;-47
2023/02/02 09:26:16;;;;;;;5.68;2.15;;;;;;;;;;5030472;28;20033;-50
2023/02/02 09:28:44;;;;;;;4.38;2.13;;;;;;;;;;5029573;28;20029;-49
2023/02/02 09:31:10;;;;;;;4.53;2.00;;;;;;;;;;5030687;28;20029;-47
2023/02/02 09:33:36;;;;;;;5.10;1.92;;;;;;;;;;5030617;28;20511;-46
2023/02/02 09:36:13;;;;;;;2.53;1.70;;;;;;;;;;5030179;28;20029;-46
2023/02/02 09:38:40;;;;;;;3.80;1.90;;;;;;;;;;5025818;28;20034;-46
2023/02/02 09:41:23;;;;;;;4.10;1.75;;;;;;;;;;5027645;28;20447;-47
2023/02/02 09:43:55;;;;;;;3.00;1.90;;;;;;;;;;5028882;28;20802;-46
2023/02/02 09:46:30;;;;;;;3.63;1.50;;;;;;;;;;5028628;28;20105;-46
2023/02/02 09:49:06;;;;;;;5.93;1.90;;;;;;;;;;5029709;28;20389;-47
2023/02/02 09:51:35;;;;;;;4.10;1.80;;;;;;;;;;5028958;28;20448;-47
2023/02/02 09:54:13;;;;;;;4.75;1.75;;;;;;;;;;5029019;28;20109;-47
2023/02/02 09:56:44;;;;;;;4.22;1.75;;;;;;;;;;5009098;28;20508;-47
2023/02/02 09:59:21;;;;;;;3.55;1.80;;;;;;;;;;5021707;28;20059;-48
2023/02/02 10:01:51;;;;;;;3.45;1.50;;;;;;;;;;5027208;28;20113;-50
2023/02/02 10:04:27;;;;;;;2.83;1.48;;;;;;;;;;5028658;28;20021;-49
2023/02/02 10:06:57;;;;;;;2.75;1.30;;;;;;;;;;5024603;28;20021;-47
2023/02/02 10:09:42;;;;;;;1.83;1.10;;;;;;;;;;5027568;28;20079;-50
2023/02/02 10:12:23;;;;;;;4.03;1.65;;;;;;;;;;5020077;28;20032;-49
2023/02/02 10:15:11;;;;;;;4.72;1.40;;;;;;;;;;5014345;28;20048;-50
2023/02/02 10:17:40;;;;;;;5.28;1.40;;;;;;;;;;5029273;28;20017;-47
2023/02/02 10:20:13;;;;;;;3.08;1.30;;;;;;;;;;5029118;28;20029;-49
2023/02/02 10:22:40;;;;;;;4.72;1.30;;;;;;;;;;5023093;28;20072;-49
2023/02/02 10:25:11;;;;;;;3.88;1.27;;;;;;;;;;5029647;28;20033;-47
2023/02/02 10:27:38;;;;;;;6.63;1.77;;;;;;;;;;5028066;28;20472;-48
2023/02/02 10:30:08;;;;;;;7.20;1.70;;;;;;;;;;5028313;28;20037;-46
2023/02/02 10:32:44;;;;;;;4.72;1.83;;;;;;;;;;5026956;28;20042;-51
2023/02/02 10:35:23;;;;;;;3.83;1.63;;;;;;;;;;5034593;28;20110;-48
2023/02/02 10:37:55;;;;;;;4.35;1.50;;;;;;;;;;5045560;28;20075;-46
2023/02/02 10:40:33;;;;;;;3.95;1.42;;;;;;;;;;5037792;28;20121;-50
2023/02/02 10:46:01;;;;;;;5.72;1.60;;;;;;;;;;5008991;28;20092;-49
2023/02/02 10:48:31;;;;;;;4.68;1.40;;;;;;;;;;5023625;28;20108;-46
2023/02/02 10:50:59;;;;;;;4.90;1.75;;;;;;;;;;5027441;28;20033;-47
2023/02/02 10:53:27;;;;;;;2.33;1.25;;;;;;;;;;5027706;28;20040;-46
2023/02/02 10:56:00;;;;;;;3.85;1.35;;;;;;;;;;5027198;28;20030;-50
2023/02/02 10:58:28;;;;;;;4.18;1.70;;;;;;;;;;5026898;28;20531;-47
2023/02/02 11:00:56;;;;;;;4.45;1.65;;;;;;;;;;5027843;28;20120;-48
2023/02/02 11:03:25;;;;;;;5.22;2.20;;;;;;;;;;5027846;28;20017;-49
2023/02/02 11:08:39;;;;;;;8.20;2.40;;;;;;;;;;5025400;28;20040;-50
2023/02/02 11:11:17;;;;;;;5.32;2.17;;;;;;;;;;5028894;28;20553;-49
2023/02/02 11:13:50;;;;;;;8.68;2.58;;;;;;;;;;5040043;28;20029;-50
2023/02/02 11:16:16;;;;;;;8.13;2.67;;;;;;;;;;5046545;28;20029;-49
2023/02/02 11:18:42;;;;;;;8.68;2.83;;;;;;;;;;5046725;28;20021;-50
2023/02/02 11:21:22;;;;;;;5.47;2.35;;;;;;;;;;5046822;28;20496;-50
2023/02/02 11:23:56;;;;;;;6.15;2.00;;;;;;;;;;5037586;28;20485;-49
2023/02/02 11:26:23;;;;;;;6.95;2.60;;;;;;;;;;5047563;28;20055;-46
2023/02/02 11:28:50;;;;;;;6.72;2.28;;;;;;;;;;5045483;28;20559;-47
2023/02/02 11:31:35;;;;;;;4.53;1.80;;;;;;;;;;5043157;28;20250;-46
2023/02/02 11:34:09;;;;;;;3.33;1.80;;;;;;;;;;5048898;28;20139;-48
2023/02/02 11:36:35;;;;;;;2.90;1.20;;;;;;;;;;5050378;28;20028;-48
2023/02/02 11:39:20;;;;;;;2.80;1.30;;;;;;;;;;5051239;28;20043;-50
2023/02/02 11:41:46;;;;;;;2.10;1.13;;;;;;;;;;5049321;28;20049;-49
2023/02/02 11:44:20;;;;;;;3.40;1.45;;;;;;;;;;5050150;28;20017;-46
2023/02/02 11:46:47;;;;;;;3.78;1.00;;;;;;;;;;5049722;28;20041;-46
2023/02/02 11:49:16;;;;;;;2.20;0.98;;;;;;;;;;5049104;28;20033;-47
2023/02/02 11:51:43;;;;;;;2.70;1.00;;;;;;;;;;5049804;28;20104;-46
2023/02/02 11:54:17;;;;;;;2.58;1.20;;;;;;;;;;5051310;28;20047;-47
2023/02/02 11:56:48;;;;;;;2.85;0.90;;;;;;;;;;5051251;28;20033;-48
2023/02/02 11:59:27;;;;;;;1.80;1.02;;;;;;;;;;5051069;28;20029;-48
2023/02/02 12:02:10;;;;;;;2.03;1.02;;;;;;;;;;5051105;28;20029;-48
2023/02/02 12:04:36;;;;;;;3.22;1.20;;;;;;;;;;5050733;28;20095;-50
2023/02/02 12:07:02;;;;;;;1.92;0.90;;;;;;;;;;5050812;28;20538;-47
2023/02/02 12:09:28;;;;;;;3.67;1.25;;;;;;;;;;5049616;28;20104;-50
2023/02/02 12:12:07;;;;;;;2.67;1.20;;;;;;;;;;5048798;28;20035;-47
2023/02/02 12:14:46;;;;;;;3.80;1.35;;;;;;;;;;5048352;28;20041;-50
2023/02/02 12:17:18;;;;;;;1.95;0.88;;;;;;;;;;5046905;28;20037;-49
2023/02/02 12:19:47;;;;;;;1.55;0.70;;;;;;;;;;5046100;28;20052;-50
2023/02/02 12:22:13;;;;;;;1.73;0.93;;;;;;;;;;5048095;28;20040;-50
2023/02/02 12:24:57;;;;;;;1.80;1.10;;;;;;;;;;5047643;28;20025;-48
2023/02/02 12:27:38;;;;;;;2.42;0.90;;;;;;;;;;5042184;28;20040;-50
2023/02/02 12:30:17;;;;;;;3.13;0.93;;;;;;;;;;5047465;28;20507;-49
2023/02/02 12:32:43;;;;;;;1.92;1.05;;;;;;;;;;5048437;28;20345;-47
2023/02/02 12:35:32;;;;;;;1.95;0.90;;;;;;;;;;5048883;28;20051;-49
2023/02/02 12:38:10;;;;;;;3.40;0.90;;;;;;;;;;5023469;28;20100;-48
2023/02/02 12:40:55;;;;;;;4.70;1.67;;;;;;;;;;5048683;28;20044;-48
2023/02/02 12:43:24;;;;;;;2.72;1.48;;;;;;;;;;5048545;28;20040;-48
2023/02/02 12:45:57;;;;;;;6.40;1.55;;;;;;;;;;5047441;28;20033;-49
2023/02/02 12:48:31;;;;;;;3.05;1.25;;;;;;;;;;5048063;28;20094;-48
2023/02/02 12:51:06;;;;;;;2.40;1.20;;;;;;;;;;5048646;28;20372;-51
2023/02/02 12:53:37;;;;;;;2.53;0.90;;;;;;;;;;5048437;28;20087;-51
2023/02/02 12:56:16;;;;;;;2.53;1.10;;;;;;;;;;5048667;28;20029;-50
2023/02/02 12:59:01;;;;;;;2.33;1.05;;;;;;;;;;5048117;28;20562;-48
2023/02/02 13:01:33;;;;;;;1.95;0.90;;;;;;;;;;5045735;28;20033;-47
2023/02/02 13:03:59;;;;;;;3.33;1.00;;;;;;;;;;5047060;28;20467;-49
2023/02/02 13:06:49;;;;;;;3.30;0.95;;;;;;;;;;5044899;28;20029;-47
2023/02/02 13:09:21;;;;;;;2.75;0.80;;;;;;;;;;5046314;28;20095;-49
2023/02/02 13:11:52;;;;;;;1.10;0.80;;;;;;;;;;5041105;28;20033;-48
2023/02/02 13:14:29;;;;;;;1.52;0.80;;;;;;;;;;5041570;28;20047;-49
2023/02/02 13:16:58;;;;;;;1.75;1.10;;;;;;;;;;5045969;28;20028;-47
2023/02/02 13:19:25;;;;;;;2.10;0.80;;;;;;;;;;5046465;28;20104;-50
2023/02/02 13:21:55;;;;;;;4.32;1.15;;;;;;;;;;5045790;28;20033;-50
2023/02/02 13:24:26;;;;;;;0.80;0.70;;;;;;;;;;5046109;28;20087;-47
2023/02/02 13:26:52;;;;;;;2.33;1.10;;;;;;;;;;5045612;28;20035;-51
2023/02/02 13:29:29;;;;;;;2.45;1.10;;;;;;;;;;5044246;28;20029;-46
2023/02/02 13:31:58;;;;;;;1.52;0.80;;;;;;;;;;5041293;28;20112;-48
2023/02/02 13:34:28;;;;;;;2.10;0.98;;;;;;;;;;5043769;28;20032;-49
2023/02/02 13:37:01;;;;;;;2.85;1.25;;;;;;;;;;5046766;28;20025;-49
2023/02/02 13:39:40;;;;;;;2.15;0.90;;;;;;;;;;5047187;28;20112;-48
2023/02/02 13:42:15;;;;;;;2.25;0.70;;;;;;;;;;5045057;28;20057;-49
2023/02/02 13:44:45;;;;;;;1.17;0.82;;;;;;;;;;5027719;28;20080;-47
2023/02/02 13:47:16;;;;;;;2.45;0.90;;;;;;;;;;5043883;28;20028;-47
2023/02/02 13:49:45;;;;;;;2.00;0.80;;;;;;;;;;5045716;28;20021;-47
2023/02/02 13:52:18;;;;;;;1.70;0.82;;;;;;;;;;5048183;28;20691;-49
2023/02/02 13:54:49;;;;;;;1.83;0.85;;;;;;;;;;5048054;28;20381;-47
2023/02/02 13:57:15;;;;;;;2.50;1.00;;;;;;;;;;5047664;28;20080;-47
2023/02/02 13:59:41;;;;;;;2.83;1.08;;;;;;;;;;5046799;28;20483;-50
2023/02/02 14:02:19;;;;;;;4.35;1.10;;;;;;;;;;5047759;28;20060;-49
2023/02/02 14:04:51;;;;;;;2.55;0.90;;;;;;;;;;5046369;28;20439;-47
2023/02/02 14:07:25;;;;;;;1.52;0.90;;;;;;;;;;5046696;28;20567;-47
2023/02/02 14:09:52;;;;;;;1.95;0.80;;;;;;;;;;5044776;28;20025;-48
2023/02/02 14:12:26;;;;;;;1.88;0.73;;;;;;;;;;5046832;28;20043;-50
2023/02/02 14:14:52;;;;;;;1.55;0.70;;;;;;;;;;5048019;28;20087;-49
2023/02/02 14:17:21;;;;;;;1.63;0.80;;;;;;;;;;5047723;28;20461;-47
2023/02/02 14:19:53;;;;;;;1.48;0.73;;;;;;;;;;5048247;28;20037;-49
2023/02/02 14:22:37;;;;;;;1.10;0.70;;;;;;;;;;5028559;28;20061;-48
2023/02/02 14:25:23;;;;;;;1.95;0.70;;;;;;;;;;5037047;28;20031;-47
2023/02/02 14:28:12;;;;;;;1.83;0.85;;;;;;;;;;5048204;28;20035;-49
2023/02/02 14:30:39;;;;;;;2.72;1.00;;;;;;;;;;5042960;28;20099;-49
2023/02/02 14:33:20;;;;;;;2.10;0.73;;;;;;;;;;5045803;28;20032;-48
2023/02/02 14:35:46;;;;;;;0.80;0.70;;;;;;;;;;5046599;28;20440;-50
2023/02/02 14:38:17;;;;;;;1.45;0.60;;;;;;;;;;5046561;28;20124;-48
2023/02/02 14:40:58;;;;;;;1.83;0.80;;;;;;;;;;5045879;28;20033;-51
2023/02/02 14:43:44;;;;;;;2.78;0.95;;;;;;;;;;5046187;28;20029;-50
2023/02/02 14:46:13;;;;;;;3.38;0.90;;;;;;;;;;5046260;28;20422;-46
2023/02/02 14:48:39;;;;;;;2.80;0.73;;;;;;;;;;5046503;28;20017;-50
2023/02/02 14:51:17;;;;;;;2.53;0.70;;;;;;;;;;5046047;28;20407;-47
2023/02/02 14:53:50;;;;;;;1.73;0.90;;;;;;;;;;5045979;28;20136;-47
2023/02/02 14:56:17;;;;;;;2.78;1.00;;;;;;;;;;5047090;28;20093;-49
2023/02/02 14:58:52;;;;;;;2.10;0.95;;;;;;;;;;5046355;28;20520;-49
2023/02/02 15:01:22;;;;;;;3.53;1.27;;;;;;;;;;5045692;28;20041;-48
2023/02/02 15:03:55;;;;;;;2.55;1.17;;;;;;;;;;5046789;28;20116;-47
2023/02/02 15:06:30;;;;;;;0.73;0.60;;;;;;;;;;5047865;28;20074;-51
2023/02/02 15:09:14;;;;;;;2.78;0.85;;;;;;;;;;5047302;28;20048;-47
2023/02/02 15:12:02;;;;;;;1.58;0.77;;;;;;;;;;5036917;28;20025;-48
2023/02/02 15:14:51;;;;;;;1.73;1.00;;;;;;;;;;5045448;28;20119;-51
2023/02/02 15:17:44;;;;;;;3.47;1.10;;;;;;;;;;5044549;28;20052;-49
2023/02/02 15:20:19;;;;;;;2.08;0.98;;;;;;;;;;5015789;28;20037;-48
2023/02/02 15:22:48;;;;;;;2.78;1.00;;;;;;;;;;5064286;28;20052;-49
2023/02/02 15:25:17;;;;;;;3.47;1.20;;;;;;;;;;5048231;28;20017;-46
2023/02/02 15:27:46;;;;;;;2.53;1.10;;;;;;;;;;5046003;28;20094;-47
2023/02/02 15:30:13;;;;;;;2.08;1.25;;;;;;;;;;5049929;28;20032;-47
2023/02/02 15:32:39;;;;;;;3.35;1.35;;;;;;;;;;5045375;28;20353;-49
2023/02/02 15:35:07;;;;;;;2.80;1.30;;;;;;;;;;5050830;28;20021;-50
2023/02/02 15:37:40;;;;;;;2.35;1.10;;;;;;;;;;5047943;28;20029;-47
2023/02/02 15:40:14;;;;;;;3.03;1.05;;;;;;;;;;5049571;28;20107;-48
2023/02/02 15:42:54;;;;;;;3.17;1.25;;;;;;;;;;5049959;28;20027;-49
2023/02/02 15:45:33;;;;;;;1.63;1.05;;;;;;;;;;5044824;28;20499;-46
2023/02/02 15:48:02;;;;;;;1.42;1.10;;;;;;;;;;5050418;28;20377;-47
2023/02/02 15:50:29;;;;;;;1.48;1.05;;;;;;;;;;5033002;28;20115;-47
2023/02/02 15:52:55;;;;;;;1.83;0.90;;;;;;;;;;5050062;28;20025;-46
2023/02/02 15:55:24;;;;;;;2.70;1.17;;;;;;;;;;5050816;28;20029;-47
2023/02/02 15:57:52;;;;;;;1.17;0.80;;;;;;;;;;5050662;28;20025;-47
2023/02/02 16:00:21;;;;;;;3.08;1.10;;;;;;;;;;5050246;28;20037;-48
2023/02/02 16:02:49;;;;;;;4.07;1.20;;;;;;;;;;5048859;28;20033;-48
2023/02/02 16:05:23;;;;;;;1.52;1.10;;;;;;;;;;5049129;28;20029;-47
2023/02/02 16:07:49;;;;;;;2.17;1.27;;;;;;;;;;5050114;28;20028;-50
2023/02/02 16:10:19;;;;;;;1.75;0.95;;;;;;;;;;5049756;28;20013;-49
2023/02/02 16:12:45;;;;;;;1.90;0.90;;;;;;;;;;5043624;28;20440;-47
2023/02/02 16:15:18;;;;;;;3.88;1.17;;;;;;;;;;5030032;28;20029;-46
2023/02/02 16:17:44;;;;;;;1.73;1.02;;;;;;;;;;5030047;28;20481;-46
2023/02/02 16:20:14;;;;;;;1.50;0.88;;;;;;;;;;5027765;28;20021;-46
2023/02/02 16:22:40;;;;;;;3.25;1.10;;;;;;;;;;5028018;28;20036;-46
2023/02/02 16:25:08;;;;;;;1.88;1.10;;;;;;;;;;5028813;28;20033;-48
2023/02/02 16:27:36;;;;;;;2.30;1.10;;;;;;;;;;5028790;28;20030;-46
2023/02/02 16:30:07;;;;;;;2.42;1.00;;;;;;;;;;5026986;28;20022;-47
2023/02/02 16:32:35;;;;;;;2.55;0.93;;;;;;;;;;5010761;28;20061;-48
2023/02/02 16:35:04;;;;;;;2.53;1.20;;;;;;;;;;5023923;28;20467;-47
2023/02/02 16:37:33;;;;;;;1.77;1.00;;;;;;;;;;5030045;28;20413;-47
2023/02/02 16:40:15;;;;;;;1.83;1.20;;;;;;;;;;5029547;28;20105;-47
2023/02/02 16:42:41;;;;;;;2.90;1.10;;;;;;;;;;5029214;28;20021;-47
2023/02/02 16:45:28;;;;;;;2.63;1.10;;;;;;;;;;5028972;28;20035;-48
2023/02/02 16:47:55;;;;;;;2.22;1.20;;;;;;;;;;5031670;28;20034;-48
2023/02/02 16:50:30;;;;;;;2.45;1.20;;;;;;;;;;5028135;28;20100;-47
2023/02/02 16:52:58;;;;;;;3.28;1.33;;;;;;;;;;5027159;28;20071;-46
2023/02/02 16:55:26;;;;;;;3.47;1.33;;;;;;;;;;5026598;28;20463;-48
2023/02/02 16:57:52;;;;;;;2.88;1.20;;;;;;;;;;5028344;28;20115;-47
2023/02/02 17:00:28;;;;;;;3.60;1.35;;;;;;;;;;5027959;28;20033;-49
2023/02/02 17:02:58;;;;;;;2.75;1.50;;;;;;;;;;5025414;28;20048;-47
2023/02/02 17:05:48;;;;;;;2.67;1.27;;;;;;;;;;5026862;28;20521;-47
2023/02/02 17:08:14;;;;;;;3.03;1.70;;;;;;;;;;5016380;28;20038;-49
2023/02/02 17:10:42;;;;;;;4.53;1.65;;;;;;;;;;5026701;28;20497;-48
2023/02/02 17:13:26;;;;;;;4.90;1.35;;;;;;;;;;5034406;28;20086;-49
2023/02/02 17:15:52;;;;;;;3.85;1.55;;;;;;;;;;5046663;28;20065;-48
2023/02/02 17:18:18;;;;;;;3.75;2.00;;;;;;;;;;5046542;28;20519;-49
2023/02/02 17:20:44;;;;;;;3.25;1.70;;;;;;;;;;5046472;28;20058;-47
2023/02/02 17:23:15;;;;;;;3.83;1.55;;;;;;;;;;5046270;28;20400;-48
2023/02/02 17:25:42;;;;;;;5.88;2.95;;;;;;;;;;5046829;28;20080;-48
2023/02/02 17:28:12;;;;;;;8.77;4.03;;;;;;;;;;5046391;28;20515;-51
2023/02/02 17:30:45;;;;;;;8.55;3.67;;;;;;;;;;5046370;28;20036;-48
2023/02/02 17:33:13;;;;;;;7.53;3.50;;;;;;;;;;5046007;28;20522;-50
2023/02/02 17:35:39;;;;;;;7.97;3.47;;;;;;;;;;5046743;28;20035;-47
2023/02/02 17:38:06;;;;;;;7.88;3.50;;;;;;;;;;5045611;28;20396;-47
2023/02/02 17:40:33;;;;;;;7.18;3.15;;;;;;;;;;5046660;28;20108;-48
2023/02/02 17:42:59;;;;;;;6.45;2.65;;;;;;;;;;5046311;28;20028;-49
2023/02/02 17:45:33;;;;;;;5.75;2.78;;;;;;;;;;5046220;28;20028;-47
2023/02/02 17:47:59;;;;;;;4.22;2.08;;;;;;;;;;5046299;28;20017;-47
2023/02/02 17:50:26;;;;;;;6.55;2.40;;;;;;;;;;5045860;28;20032;-46
2023/02/02 17:52:52;;;;;;;6.18;2.42;;;;;;;;;;5045607;28;20032;-51
2023/02/02 17:55:18;;;;;;;4.25;2.28;;;;;;;;;;5045774;28;20462;-48
2023/02/02 17:57:44;;;;;;;6.35;2.78;;;;;;;;;;5046028;28;20508;-49
2023/02/02 18:00:10;;;;;;;5.30;2.92;;;;;;;;;;5045688;28;20139;-50
2023/02/02 18:02:36;;;;;;;5.97;3.17;;;;;;;;;;5045498;28;20024;-50
2023/02/02 18:05:03;;;;;;;6.32;2.30;;;;;;;;;;5046182;28;20033;-50
2023/02/02 18:07:29;;;;;;;5.85;2.35;;;;;;;;;;5045832;28;20029;-48
2023/02/02 18:09:55;;;;;;;5.47;2.83;;;;;;;;;;5044631;28;20511;-48
2023/02/02 18:12:21;;;;;;;5.50;2.33;;;;;;;;;;5045214;28;20060;-50
2023/02/02 18:14:47;;;;;;;4.47;2.38;;;;;;;;;;5044233;28;20032;-50
2023/02/02 18:17:13;;;;;;;5.03;2.38;;;;;;;;;;5044594;28;20490;-49
2023/02/02 18:19:43;;;;;;;5.07;2.50;;;;;;;;;;5045296;28;20048;-48
2023/02/02 18:22:09;;;;;;;4.30;2.17;;;;;;;;;;5043470;28;20032;-51
2023/02/02 18:24:35;;;;;;;6.13;2.67;;;;;;;;;;5042500;28;20040;-49
2023/02/02 18:27:01;;;;;;;5.18;2.38;;;;;;;;;;5044799;28;20025;-49
2023/02/02 18:29:27;;;;;;;4.93;2.20;;;;;;;;;;5044139;28;20427;-50
2023/02/02 18:31:57;;;;;;;6.25;3.10;;;;;;;;;;5044268;28;20060;-50
2023/02/02 18:34:23;;;;;;;5.95;3.20;;;;;;;;;;5044046;28;20044;-51
2023/02/02 18:36:49;;;;;;;6.45;3.53;;;;;;;;;;5043873;28;20025;-48
2023/02/02 18:39:15;;;;;;;5.63;3.15;;;;;;;;;;5044180;28;20519;-48
2023/02/02 18:41:41;;;;;;;5.75;2.80;;;;;;;;;;5044012;28;20035;-51
2023/02/02 18:44:07;;;;;;;4.18;2.90;;;;;;;;;;5042868;28;20411;-50
2023/02/02 18:46:33;;;;;;;3.88;2.53;;;;;;;;;;5044586;28;20025;-49
2023/02/02 18:48:59;;;;;;;3.13;2.10;;;;;;;;;;5043394;28;20025;-49
2023/02/02 18:51:26;;;;;;;4.95;2.40;;;;;;;;;;5044119;28;20029;-51
2023/02/02 18:53:58;;;;;;;3.40;1.90;;;;;;;;;;5043595;28;20029;-50
2023/02/02 18:56:24;;;;;;;5.40;1.90;;;;;;;;;;5011040;28;20723;-50
2023/02/02 18:58:51;;;;;;;3.10;1.60;;;;;;;;;;5043280;28;20111;-48
2023/02/02 19:01:18;;;;;;;6.70;2.25;;;;;;;;;;5042358;28;20041;-47
2023/02/02 19:03:48;;;;;;;2.85;1.60;;;;;;;;;;5041281;28;20499;-51
2023/02/02 19:08:59;;;;;;;;;;;;;;;;;;5042950;28;20108;-48
2023/02/02 19:11:28;;;;;;;3.78;1.90;;;;;;;;;;5041973;28;19951;-48
2023/02/02 19:13:55;;;;;;;4.82;2.10;;;;;;;;;;5042265;28;20250;-52
2023/02/02 19:16:25;;;;;;;4.85;1.88;;;;;;;;;;5024931;28;20025;-51
2023/02/02 19:18:55;;;;;;;3.25;1.70;;;;;;;;;;5042434;28;20470;-48
2023/02/02 19:21:22;;;;;;;4.03;2.08;;;;;;;;;;5043446;28;20472;-49
2023/02/02 19:23:48;;;;;;;4.63;1.73;;;;;;;;;;5041146;28;20056;-49
2023/02/02 19:26:19;;;;;;;3.50;1.40;;;;;;;;;;5042182;28;20108;-48
2023/02/02 19:28:46;;;;;;;3.30;1.60;;;;;;;;;;5042727;28;20116;-47
2023/02/02 19:31:13;;;;;;;4.07;1.55;;;;;;;;;;5042251;28;20579;-49
2023/02/02 19:33:41;;;;;;;1.77;0.98;;;;;;;;;;5044271;28;20033;-50
2023/02/02 19:36:12;;;;;;;2.95;1.40;;;;;;;;;;5042236;28;20025;-49
2023/02/02 19:38:38;;;;;;;3.20;1.42;;;;;;;;;;5043061;28;20061;-51
2023/02/02 19:41:13;;;;;;;3.85;1.42;;;;;;;;;;5043422;28;20071;-48
2023/02/02 19:43:43;;;;;;;2.45;1.15;;;;;;;;;;5042559;28;20083;-49
2023/02/02 19:46:14;;;;;;;3.33;1.30;;;;;;;;;;5042288;28;20068;-50
2023/02/02 19:48:40;;;;;;;3.33;1.15;;;;;;;;;;5043712;28;20055;-50
2023/02/02 19:51:25;;;;;;;3.13;1.30;;;;;;;;;;5042674;28;20560;-51
2023/02/02 19:53:55;;;;;;;3.22;1.33;;;;;;;;;;5042924;28;20036;-50
2023/02/02 19:56:26;;;;;;;4.03;1.08;;;;;;;;;;5046693;28;20086;-52
2023/02/02 19:58:52;;;;;;;2.20;1.17;;;;;;;;;;5046302;28;20409;-49
2023/02/02 20:01:19;;;;;;;4.20;1.40;;;;;;;;;;5046167;28;20067;-50
2023/02/02 20:03:45;;;;;;;2.47;1.52;;;;;;;;;;5046192;28;20032;-49
2023/02/02 20:06:16;;;;;;;3.55;1.30;;;;;;;;;;5045099;28;20028;-49
2023/02/02 20:08:43;;;;;;;2.88;1.45;;;;;;;;;;5045995;28;20120;-51
2023/02/02 20:11:15;;;;;;;2.03;0.90;;;;;;;;;;5045694;28;20029;-50
2023/02/02 20:13:47;;;;;;;3.67;1.30;;;;;;;;;;5035532;28;20044;-49
2023/02/02 20:16:18;;;;;;;2.17;1.20;;;;;;;;;;5025292;28;20029;-48